createdAt,value
2018-09-08T00:00:40.646Z,99.99
2018-09-08T00:01:40.801Z,99.99
2018-09-08T00:02:40.967Z,99.99
2018-09-08T00:03:41.119Z,99.99
2018-09-08T00:04:41.287Z,99.99
2018-09-08T00:05:41.445Z,99.99
2018-09-08T00:06:41.610Z,99.99
2018-09-08T00:07:41.808Z,99.99
2018-09-08T00:08:41.959Z,99.99
2018-09-08T00:09:42.117Z,99.99
2018-09-08T00:10:42.281Z,99.99
2018-09-08T00:11:42.474Z,99.99
2018-09-08T00:12:42.623Z,99.99
2018-09-08T00:13:42.797Z,99.99
2018-09-08T00:14:42.964Z,99.99
2018-09-08T00:15:43.130Z,99.99
2018-09-08T00:16:43.299Z,99.99
2018-09-08T00:17:43.457Z,99.99
2018-09-08T00:18:43.634Z,99.99
2018-09-08T00:19:43.788Z,99.99
2018-09-08T00:20:43.956Z,99.99
2018-09-08T00:21:44.127Z,99.99
2018-09-08T00:22:44.275Z,99.99
2018-09-08T00:23:44.497Z,99.99
2018-09-08T00:24:44.643Z,99.99
2018-09-08T00:25:44.824Z,99.99
2018-09-08T00:26:45.002Z,99.99
2018-09-08T00:27:45.165Z,99.99
2018-09-08T00:28:45.335Z,99.99
2018-09-08T00:29:45.486Z,99.99
2018-09-08T00:30:45.661Z,99.99
2018-09-08T00:31:45.837Z,99.99
2018-09-08T00:32:46.012Z,99.99
2018-09-08T00:33:46.191Z,99.99
2018-09-08T00:34:46.365Z,99.99
2018-09-08T00:35:46.502Z,99.99
2018-09-08T00:36:46.660Z,99.99
2018-09-08T00:37:46.844Z,99.99
2018-09-08T00:38:47.050Z,99.99
2018-09-08T00:39:47.152Z,99.99
2018-09-08T00:40:47.321Z,99.99
2018-09-08T00:41:47.476Z,99.99
2018-09-08T00:42:47.661Z,99.99
2018-09-08T00:43:47.827Z,99.99
2018-09-08T00:44:47.998Z,99.99
2018-09-08T00:45:48.194Z,99.99
2018-09-08T00:46:48.345Z,99.99
2018-09-08T00:47:48.504Z,99.99
2018-09-08T00:48:48.672Z,99.99
2018-09-08T00:49:48.841Z,99.99
2018-09-08T00:50:49.012Z,99.99
2018-09-08T00:51:49.201Z,99.99
2018-09-08T00:52:49.367Z,99.99
2018-09-08T00:53:49.539Z,99.99
2018-09-08T00:54:49.705Z,99.99
2018-09-08T00:55:49.874Z,99.99
2018-09-08T00:56:50.029Z,99.99
2018-09-08T00:57:50.195Z,99.99
2018-09-08T00:58:50.366Z,99.99
2018-09-08T00:59:50.543Z,99.99
2018-09-08T01:00:50.955Z,99.99
2018-09-08T01:01:50.895Z,99.99
2018-09-08T01:02:51.047Z,99.99
2018-09-08T01:03:51.300Z,99.99
2018-09-08T01:04:51.380Z,99.99
2018-09-08T01:05:51.576Z,99.99
2018-09-08T01:06:51.702Z,99.99
2018-09-08T01:07:51.886Z,99.99
2018-09-08T01:08:52.656Z,99.99
2018-09-08T01:09:52.213Z,99.99
2018-09-08T01:10:52.394Z,99.99
2018-09-08T01:11:52.576Z,99.99
2018-09-08T01:12:52.780Z,99.99
2018-09-08T01:13:52.939Z,99.99
2018-09-08T01:14:53.102Z,99.99
2018-09-08T01:15:53.269Z,99.99
2018-09-08T01:16:53.446Z,99.99
2018-09-08T01:17:53.601Z,99.99
2018-09-08T01:18:53.778Z,99.99
2018-09-08T01:19:53.955Z,99.99
2018-09-08T01:20:54.119Z,99.99
2018-09-08T01:21:54.301Z,99.99
2018-09-08T01:22:54.475Z,99.99
2018-09-08T01:23:54.885Z,99.99
2018-09-08T01:24:54.813Z,99.99
2018-09-08T01:25:54.985Z,99.99
2018-09-08T01:26:55.149Z,99.99
2018-09-08T01:27:55.346Z,99.99
2018-09-08T01:28:55.491Z,99.99
2018-09-08T01:29:55.679Z,99.99
2018-09-08T01:30:55.834Z,99.99
2018-09-08T01:31:55.998Z,99.99
2018-09-08T01:32:56.184Z,99.99
2018-09-08T01:33:56.360Z,99.99
2018-09-08T01:34:56.528Z,99.99
2018-09-08T01:35:56.672Z,99.99
2018-09-08T01:36:57.105Z,99.99
2018-09-08T01:37:57.015Z,99.99
2018-09-08T01:38:57.184Z,99.99
2018-09-08T01:39:57.355Z,99.99
2018-09-08T01:40:57.523Z,99.99
2018-09-08T01:41:57.682Z,99.99
2018-09-08T01:42:57.883Z,99.99
2018-09-08T01:43:58.079Z,99.99
2018-09-08T01:44:58.282Z,99.99
2018-09-08T01:45:58.460Z,99.99
2018-09-08T01:46:58.619Z,99.99
2018-09-08T01:47:58.780Z,99.99
2018-09-08T01:48:58.949Z,99.99
2018-09-08T01:49:59.117Z,99.99
2018-09-08T01:50:59.285Z,99.99
2018-09-08T01:51:59.472Z,99.99
2018-09-08T01:52:59.639Z,99.99
2018-09-08T01:53:59.801Z,99.99
2018-09-08T01:54:59.985Z,99.99
2018-09-08T01:56:00.157Z,99.99
2018-09-08T01:57:00.318Z,99.99
2018-09-08T01:58:00.484Z,99.99
2018-09-08T01:59:00.655Z,99.99
2018-09-08T02:00:00.821Z,99.99
2018-09-08T02:01:00.991Z,99.99
2018-09-08T02:02:01.147Z,99.99
2018-09-08T02:03:01.324Z,99.99
2018-09-08T02:04:01.500Z,99.99
2018-09-08T02:05:01.662Z,99.99
2018-09-08T02:06:01.834Z,99.99
2018-09-08T02:07:02.003Z,99.99
2018-09-08T02:08:02.163Z,99.99
2018-09-08T02:09:02.321Z,99.99
2018-09-08T02:10:02.726Z,99.99
2018-09-08T02:11:02.644Z,99.99
2018-09-08T02:12:02.807Z,99.99
2018-09-08T02:13:02.966Z,99.99
2018-09-08T02:14:03.118Z,99.99
2018-09-08T02:15:03.309Z,99.99
2018-09-08T02:16:03.493Z,99.99
2018-09-08T02:17:03.658Z,99.99
2018-09-08T02:18:03.832Z,99.99
2018-09-08T02:19:03.985Z,99.99
2018-09-08T02:20:04.152Z,99.99
2018-09-08T02:21:04.343Z,99.99
2018-09-08T02:22:04.509Z,99.99
2018-09-08T02:23:04.918Z,99.99
2018-09-08T02:24:04.848Z,99.99
2018-09-08T02:25:05.016Z,99.99
2018-09-08T02:26:05.177Z,99.99
2018-09-08T02:27:05.334Z,99.99
2018-09-08T02:28:05.500Z,99.99
2018-09-08T02:29:05.669Z,99.99
2018-09-08T02:30:05.832Z,99.99
2018-09-08T02:31:06.009Z,99.99
2018-09-08T02:32:06.177Z,99.99
2018-09-08T02:33:06.379Z,99.99
2018-09-08T02:34:06.533Z,99.99
2018-09-08T02:35:06.692Z,99.99
2018-09-08T02:36:06.861Z,99.99
2018-09-08T02:37:07.023Z,99.99
2018-09-08T02:38:07.214Z,99.99
2018-09-08T02:39:07.369Z,99.99
2018-09-08T02:40:07.543Z,99.99
2018-09-08T02:41:07.725Z,99.99
2018-09-08T02:42:07.894Z,99.99
2018-09-08T02:43:08.074Z,99.99
2018-09-08T02:44:08.248Z,99.99
2018-09-08T02:45:08.400Z,99.99
2018-09-08T02:46:08.557Z,99.99
2018-09-08T02:47:08.733Z,99.99
2018-09-08T02:48:08.899Z,99.99
2018-09-08T02:49:09.077Z,99.99
2018-09-08T02:50:09.268Z,99.99
2018-09-08T02:51:09.435Z,99.99
2018-09-08T02:52:09.603Z,99.99
2018-09-08T02:53:09.774Z,99.99
2018-09-08T02:54:09.948Z,99.99
2018-09-08T02:55:10.124Z,99.99
2018-09-08T02:56:10.274Z,99.99
2018-09-08T02:57:10.459Z,99.99
2018-09-08T02:58:10.608Z,99.99
2018-09-08T02:59:10.784Z,99.99
2018-09-08T03:00:10.946Z,99.99
2018-09-08T03:01:11.109Z,99.99
2018-09-08T03:02:11.282Z,99.99
2018-09-08T03:03:11.461Z,99.99
2018-09-08T03:04:11.612Z,99.99
2018-09-08T03:05:11.778Z,99.99
2018-09-08T03:06:11.950Z,99.99
2018-09-08T03:07:12.119Z,99.99
2018-09-08T03:08:12.297Z,99.99
2018-09-08T03:09:12.463Z,99.99
2018-09-08T03:10:12.656Z,99.99
2018-09-08T03:11:12.826Z,99.99
2018-09-08T03:12:13.010Z,99.99
2018-09-08T03:13:13.203Z,99.99
2018-09-08T03:14:13.341Z,99.99
2018-09-08T03:15:13.528Z,99.99
2018-09-08T03:16:13.690Z,99.99
2018-09-08T03:17:13.873Z,99.99
2018-09-08T03:18:13.997Z,99.99
2018-09-08T03:19:14.182Z,99.99
2018-09-08T03:20:14.337Z,99.99
2018-09-08T03:21:14.504Z,99.99
2018-09-08T03:22:14.690Z,99.99
2018-09-08T03:23:14.857Z,99.99
2018-09-08T03:24:15.027Z,99.99
2018-09-08T03:25:15.187Z,99.99
2018-09-08T03:26:15.360Z,99.99
2018-09-08T03:27:15.553Z,99.99
2018-09-08T03:28:15.743Z,99.99
2018-09-08T03:29:15.900Z,99.99
2018-09-08T03:30:16.060Z,99.99
2018-09-08T03:31:16.243Z,99.99
2018-09-08T03:32:16.401Z,99.99
2018-09-08T03:33:16.570Z,99.99
2018-09-08T03:34:16.727Z,99.99
2018-09-08T03:35:16.895Z,99.99
2018-09-08T03:36:17.063Z,99.99
2018-09-08T03:37:17.234Z,99.99
2018-09-08T03:38:17.393Z,99.99
2018-09-08T03:39:17.579Z,99.99
2018-09-08T03:40:17.788Z,99.99
2018-09-08T03:41:17.929Z,99.99
2018-09-08T03:42:18.110Z,99.99
2018-09-08T03:43:18.269Z,99.99
2018-09-08T03:44:18.438Z,99.99
2018-09-08T03:45:18.617Z,99.99
2018-09-08T03:46:18.794Z,99.99
2018-09-08T03:47:18.963Z,99.99
2018-09-08T03:48:19.144Z,99.99
2018-09-08T03:49:19.338Z,99.99
2018-09-08T03:50:19.486Z,99.99
2018-09-08T03:51:19.658Z,99.99
2018-09-08T03:52:19.844Z,99.99
2018-09-08T03:53:20.024Z,99.99
2018-09-08T03:54:20.175Z,99.99
2018-09-08T03:55:20.356Z,99.99
2018-09-08T03:56:20.527Z,99.99
2018-09-08T03:57:20.684Z,99.99
2018-09-08T03:58:20.948Z,99.99
2018-09-08T03:59:21.046Z,99.99
2018-09-08T04:00:21.694Z,99.99
2018-09-08T04:01:21.365Z,99.99
2018-09-08T04:02:21.524Z,99.99
2018-09-08T04:03:21.726Z,99.99
2018-09-08T04:04:21.883Z,99.99
2018-09-08T04:05:22.069Z,99.99
2018-09-08T04:06:22.198Z,99.99
2018-09-08T04:07:22.384Z,99.99
2018-09-08T04:08:22.538Z,99.99
2018-09-08T04:09:22.707Z,99.99
2018-09-08T04:10:22.884Z,99.99
2018-09-08T04:11:23.156Z,99.99
2018-09-08T04:12:23.217Z,99.99
2018-09-08T04:13:23.370Z,99.99
2018-09-08T04:14:23.569Z,99.99
2018-09-08T04:15:23.727Z,99.99
2018-09-08T04:16:23.888Z,99.99
2018-09-08T04:17:24.064Z,99.99
2018-09-08T04:18:24.226Z,99.99
2018-09-08T04:19:24.416Z,99.99
2018-09-08T04:20:24.588Z,99.99
2018-09-08T04:21:24.756Z,99.99
2018-09-08T04:22:24.926Z,99.99
2018-09-08T04:23:25.079Z,99.99
2018-09-08T04:24:25.252Z,99.99
2018-09-08T04:25:25.430Z,99.99
2018-09-08T04:26:25.585Z,99.99
2018-09-08T04:27:25.770Z,99.99
2018-09-08T04:28:25.968Z,99.99
2018-09-08T04:29:26.160Z,99.99
2018-09-08T04:30:26.292Z,99.99
2018-09-08T04:31:26.460Z,99.99
2018-09-08T04:32:26.673Z,99.99
2018-09-08T04:33:26.788Z,99.99
2018-09-08T04:34:26.981Z,99.99
2018-09-08T04:35:27.146Z,99.99
2018-09-08T04:36:27.315Z,99.99
2018-09-08T04:37:27.478Z,99.99
2018-09-08T04:38:27.633Z,99.99
2018-09-08T04:39:27.792Z,99.99
2018-09-08T04:40:27.964Z,99.99
2018-09-08T04:41:28.153Z,99.99
2018-09-08T04:42:28.313Z,99.99
2018-09-08T04:43:28.461Z,99.99
2018-09-08T04:44:28.655Z,99.99
2018-09-08T04:45:28.821Z,99.99
2018-09-08T04:46:28.974Z,99.99
2018-09-08T04:47:29.133Z,99.99
2018-09-08T04:48:29.284Z,99.99
2018-09-08T04:49:29.489Z,99.99
2018-09-08T04:50:29.669Z,99.99
2018-09-08T04:51:29.860Z,99.99
2018-09-08T04:52:30.016Z,99.99
2018-09-08T04:53:30.204Z,99.99
2018-09-08T04:54:30.344Z,99.99
2018-09-08T04:55:30.536Z,99.99
2018-09-08T04:56:30.707Z,99.99
2018-09-08T04:57:30.871Z,99.99
2018-09-08T04:58:31.053Z,99.99
2018-09-08T04:59:31.243Z,99.99
2018-09-08T05:00:31.367Z,99.99
2018-09-08T05:01:31.533Z,99.99
2018-09-08T05:02:31.705Z,99.99
2018-09-08T05:03:31.847Z,99.99
2018-09-08T05:04:32.035Z,99.99
2018-09-08T05:05:32.214Z,99.99
2018-09-08T05:06:32.374Z,99.99
2018-09-08T05:07:32.550Z,99.99
2018-09-08T05:08:32.705Z,99.99
2018-09-08T05:09:32.883Z,99.99
2018-09-08T05:10:33.057Z,99.99
2018-09-08T05:11:33.215Z,99.99
2018-09-08T05:12:33.385Z,99.99
2018-09-08T05:13:33.553Z,99.99
2018-09-08T05:14:33.716Z,99.99
2018-09-08T05:15:33.908Z,99.99
2018-09-08T05:16:34.071Z,99.99
2018-09-08T05:17:34.246Z,99.99
2018-09-08T05:18:34.408Z,99.99
2018-09-08T05:19:34.597Z,99.99
2018-09-08T05:20:34.734Z,99.99
2018-09-08T05:21:34.924Z,99.99
2018-09-08T05:22:35.082Z,99.99
2018-09-08T05:23:35.242Z,99.99
2018-09-08T05:24:35.414Z,99.99
2018-09-08T05:25:35.579Z,99.99
2018-09-08T05:26:35.761Z,99.99
2018-09-08T05:27:35.881Z,99.99
2018-09-08T05:28:36.114Z,99.99
2018-09-08T05:29:36.220Z,99.99
2018-09-08T05:30:36.426Z,99.99
2018-09-08T05:31:36.568Z,99.99
2018-09-08T05:32:36.748Z,99.99
2018-09-08T05:33:36.921Z,99.99
2018-09-08T05:34:37.069Z,99.99
2018-09-08T05:35:37.253Z,99.99
2018-09-08T05:36:37.419Z,99.99
2018-09-08T05:37:37.583Z,99.99
2018-09-08T05:38:37.755Z,99.99
2018-09-08T05:39:37.938Z,99.99
2018-09-08T05:40:38.113Z,99.99
2018-09-08T05:41:38.286Z,99.99
2018-09-08T05:42:38.708Z,99.99
2018-09-08T05:43:38.630Z,99.99
2018-09-08T05:44:38.800Z,99.99
2018-09-08T05:45:38.993Z,99.99
2018-09-08T05:46:39.157Z,99.99
2018-09-08T05:47:39.317Z,99.99
2018-09-08T05:48:39.522Z,99.99
2018-09-08T05:49:39.675Z,99.99
2018-09-08T05:50:39.836Z,99.99
2018-09-08T05:51:40.011Z,99.99
2018-09-08T05:52:40.189Z,99.99
2018-09-08T05:53:40.357Z,99.99
2018-09-08T05:54:40.560Z,99.99
2018-09-08T05:55:40.682Z,99.99
2018-09-08T05:56:40.860Z,99.99
2018-09-08T05:57:41.030Z,99.99
2018-09-08T05:58:41.217Z,99.99
2018-09-08T05:59:41.393Z,99.99
2018-09-08T06:00:41.561Z,99.99
2018-09-08T06:01:41.724Z,99.99
2018-09-08T06:02:41.917Z,99.99
2018-09-08T06:03:42.096Z,99.99
2018-09-08T06:04:42.252Z,99.99
2018-09-08T06:05:42.425Z,99.99
2018-09-08T06:06:42.603Z,99.99
2018-09-08T06:07:42.783Z,99.99
2018-09-08T06:08:42.951Z,99.99
2018-09-08T06:09:43.119Z,99.99
2018-09-08T06:10:43.343Z,99.99
2018-09-08T06:11:43.483Z,99.99
2018-09-08T06:12:43.656Z,99.99
2018-09-08T06:13:43.849Z,99.99
2018-09-08T06:14:44.017Z,99.99
2018-09-08T06:15:44.218Z,99.99
2018-09-08T06:16:44.362Z,99.99
2018-09-08T06:17:44.528Z,99.99
2018-09-08T06:18:44.707Z,99.99
2018-09-08T06:19:45.004Z,99.99
2018-09-08T06:20:45.079Z,99.99
2018-09-08T06:21:45.261Z,99.99
2018-09-08T06:22:45.440Z,99.99
2018-09-08T06:23:45.632Z,99.99
2018-09-08T06:24:45.793Z,99.99
2018-09-08T06:25:45.982Z,99.99
2018-09-08T06:26:46.129Z,99.99
2018-09-08T06:27:46.316Z,99.99
2018-09-08T06:28:46.529Z,99.99
2018-09-08T06:29:46.659Z,99.99
2018-09-08T06:30:46.859Z,99.99
2018-09-08T06:31:47.053Z,99.99
2018-09-08T06:32:47.209Z,99.99
2018-09-08T06:33:47.410Z,99.99
2018-09-08T06:34:47.511Z,99.99
2018-09-08T06:35:47.697Z,99.99
2018-09-08T06:36:47.864Z,99.99
2018-09-08T06:37:48.022Z,99.99
2018-09-08T06:38:48.217Z,99.99
2018-09-08T06:39:48.358Z,99.99
2018-09-08T06:40:48.515Z,99.99
2018-09-08T06:41:48.688Z,99.99
2018-09-08T06:42:49.132Z,99.99
2018-09-08T06:43:49.054Z,99.99
2018-09-08T06:44:49.277Z,99.99
2018-09-08T06:45:49.432Z,99.99
2018-09-08T06:46:49.571Z,99.99
2018-09-08T06:47:49.777Z,99.99
2018-09-08T06:48:49.870Z,99.99
2018-09-08T06:49:50.027Z,99.99
2018-09-08T06:50:50.194Z,99.99
2018-09-08T06:51:50.357Z,99.99
2018-09-08T06:52:50.535Z,99.99
2018-09-08T06:53:50.712Z,99.99
2018-09-08T06:54:50.882Z,99.99
2018-09-08T06:55:51.060Z,99.99
2018-09-08T06:56:51.227Z,99.99
2018-09-08T06:57:51.433Z,99.99
2018-09-08T06:58:51.547Z,99.99
2018-09-08T06:59:51.723Z,99.99
2018-09-08T07:00:51.928Z,99.99
2018-09-08T07:01:52.078Z,99.99
2018-09-08T07:02:52.260Z,99.99
2018-09-08T07:03:52.419Z,99.99
2018-09-08T07:04:52.619Z,98.46
2018-09-08T07:05:52.749Z,98.27
2018-09-08T07:06:52.942Z,97.27
2018-09-08T07:07:53.094Z,95.32
2018-09-08T07:08:53.246Z,94.36
2018-09-08T07:09:53.486Z,92.69
2018-09-08T07:10:53.592Z,91.02
2018-09-08T07:11:53.760Z,89.78
2018-09-08T07:12:53.947Z,87.87
2018-09-08T07:13:54.127Z,87.91
2018-09-08T07:14:54.276Z,87.96
2018-09-08T07:15:54.479Z,87.53
2018-09-08T07:16:54.641Z,86.67
2018-09-08T07:17:54.808Z,86.38
2018-09-08T07:18:55.245Z,85.57
2018-09-08T07:19:55.161Z,85.52
2018-09-08T07:20:55.315Z,85.42
2018-09-08T07:21:55.496Z,85.47
2018-09-08T07:22:55.666Z,84.76
2018-09-08T07:23:55.837Z,85.67
2018-09-08T07:24:56.077Z,86.67
2018-09-08T07:25:56.176Z,86.38
2018-09-08T07:26:56.358Z,86.10
2018-09-08T07:27:56.581Z,85.47
2018-09-08T07:28:56.681Z,84.23
2018-09-08T07:29:56.869Z,84.08
2018-09-08T07:30:57.101Z,82.01
2018-09-08T07:31:57.230Z,81.44
2018-09-08T07:32:57.411Z,81.15
2018-09-08T07:33:57.544Z,79.95
2018-09-08T07:34:57.718Z,79.43
2018-09-08T07:35:57.895Z,80.00
2018-09-08T07:36:58.071Z,79.57
2018-09-08T07:37:58.238Z,77.94
2018-09-08T07:38:58.753Z,79.62
2018-09-08T07:39:58.643Z,80.19
2018-09-08T07:40:58.819Z,79.18
2018-09-08T07:42:59.153Z,79.37
2018-09-08T07:43:59.366Z,78.42
2018-09-08T07:44:59.524Z,80.10
2018-09-08T07:45:59.732Z,79.72
2018-09-08T07:46:59.823Z,79.37
2018-09-08T07:47:59.981Z,78.17
2018-09-08T07:49:00.170Z,77.40
2018-09-08T07:50:00.351Z,77.53
2018-09-08T07:51:00.505Z,76.57
2018-09-08T07:52:01.066Z,76.29
2018-09-08T07:53:00.858Z,76.32
2018-09-08T07:54:01.120Z,75.46
2018-09-08T07:55:01.214Z,74.73
2018-09-08T07:56:01.400Z,73.87
2018-09-08T07:57:01.590Z,73.24
2018-09-08T07:58:01.778Z,72.28
2018-09-08T07:59:01.930Z,72.37
2018-09-08T08:00:02.104Z,72.31
2018-09-08T08:01:02.284Z,71.83
2018-09-08T08:02:02.467Z,72.18
2018-09-08T08:03:02.631Z,72.47
2018-09-08T08:04:02.819Z,72.18
2018-09-08T08:05:03.014Z,72.31
2018-09-08T08:06:03.199Z,73.04
2018-09-08T08:07:03.367Z,72.31
2018-09-08T08:08:03.543Z,71.58
2018-09-08T08:09:03.759Z,71.29
2018-09-08T08:10:03.896Z,70.72
2018-09-08T08:11:04.073Z,70.72
2018-09-08T08:12:04.257Z,70.07
2018-09-08T08:13:04.432Z,69.89
2018-09-08T08:14:04.599Z,70.07
2018-09-08T08:15:04.781Z,69.98
2018-09-08T08:16:04.966Z,69.21
2018-09-08T08:17:05.153Z,69.50
2018-09-08T08:18:05.358Z,68.29
2018-09-08T08:19:05.513Z,68.96
2018-09-08T08:20:05.662Z,68.09
2018-09-08T08:21:05.835Z,68.48
2018-09-08T08:22:06.033Z,67.65
2018-09-08T08:23:06.276Z,66.78
2018-09-08T08:24:06.412Z,66.04
2018-09-08T08:25:06.561Z,65.27
2018-09-08T08:26:06.761Z,65.37
2018-09-08T08:27:06.917Z,65.05
2018-09-08T08:28:07.097Z,64.98
2018-09-08T08:29:07.271Z,63.89
2018-09-08T08:30:07.484Z,64.92
2018-09-08T08:31:07.741Z,65.78
2018-09-08T08:32:07.823Z,66.27
2018-09-08T08:33:08.014Z,65.91
2018-09-08T08:34:08.172Z,66.20
2018-09-08T08:35:08.362Z,64.95
2018-09-08T08:36:08.533Z,66.74
2018-09-08T08:37:08.767Z,68.92
2018-09-08T08:38:08.967Z,67.61
2018-09-08T08:39:09.082Z,65.97
2018-09-08T08:40:09.220Z,66.84
2018-09-08T08:41:09.417Z,65.81
2018-09-08T08:42:09.590Z,63.79
2018-09-08T08:43:09.811Z,62.32
2018-09-08T08:44:09.930Z,62.80
2018-09-08T08:45:10.190Z,63.41
2018-09-08T08:46:10.282Z,64.02
2018-09-08T08:47:10.465Z,63.89
2018-09-08T08:48:10.681Z,62.87
2018-09-08T08:49:10.871Z,62.22
2018-09-08T08:50:10.950Z,60.13
2018-09-08T08:51:11.141Z,60.13
2018-09-08T08:52:11.325Z,59.75
2018-09-08T08:53:11.498Z,59.30
2018-09-08T08:54:11.722Z,58.59
2018-09-08T08:55:11.952Z,59.10
2018-09-08T08:56:12.175Z,59.55
2018-09-08T08:57:12.373Z,60.61
2018-09-08T08:58:12.546Z,60.80
2018-09-08T08:59:12.727Z,59.48
2018-09-08T09:00:12.967Z,58.42
2018-09-08T09:01:13.120Z,58.33
2018-09-08T09:02:13.337Z,58.42
2018-09-08T09:03:13.527Z,57.85
2018-09-08T09:04:13.715Z,56.85
2018-09-08T09:05:13.882Z,57.27
2018-09-08T09:06:14.080Z,56.57
2018-09-08T09:07:14.692Z,57.24
2018-09-08T09:08:14.867Z,57.94
2018-09-08T09:09:14.639Z,56.79
2018-09-08T09:11:15.015Z,55.76
2018-09-08T09:12:15.200Z,55.08
2018-09-08T09:13:15.427Z,55.10
2018-09-08T09:14:15.553Z,54.27
2018-09-08T09:15:16.117Z,50.96
2018-09-08T09:16:15.930Z,52.33
2018-09-08T09:17:16.109Z,51.95
2018-09-08T09:18:16.297Z,51.68
2018-09-08T09:19:16.503Z,50.81
2018-09-08T09:21:16.843Z,49.02
2018-09-08T09:22:17.043Z,49.24
2018-09-08T09:23:17.759Z,47.96
2018-09-08T09:24:18.169Z,48.06
2018-09-08T09:25:17.572Z,47.99
2018-09-08T09:26:17.757Z,48.47
2018-09-08T09:27:17.961Z,47.99
2018-09-08T09:28:18.125Z,48.06
2018-09-08T09:29:18.307Z,48.90
2018-09-08T09:30:18.469Z,49.10
2018-09-08T09:31:18.661Z,49.19
2018-09-08T09:32:18.832Z,48.93
2018-09-08T09:33:19.020Z,49.15
2018-09-08T09:34:19.220Z,47.80
2018-09-08T09:35:19.400Z,46.56
2018-09-08T09:36:19.566Z,46.49
2018-09-08T09:37:19.756Z,46.75
2018-09-08T09:38:19.917Z,47.81
2018-09-08T09:39:20.103Z,48.18
2018-09-08T09:40:20.286Z,49.22
2018-09-08T09:41:20.932Z,49.10
2018-09-08T09:42:20.749Z,49.24
2018-09-08T09:43:20.943Z,48.23
2018-09-08T09:44:21.232Z,47.74
2018-09-08T09:45:21.290Z,48.21
2018-09-08T09:46:21.476Z,48.88
2018-09-08T09:47:21.664Z,48.37
2018-09-08T09:48:21.852Z,49.15
2018-09-08T09:49:22.036Z,49.12
2018-09-08T09:50:22.255Z,49.82
2018-09-08T09:51:22.454Z,49.05
2018-09-08T09:52:22.658Z,49.17
2018-09-08T09:53:22.876Z,48.97
2018-09-08T09:54:23.057Z,48.30
2018-09-08T09:55:23.246Z,49.32
2018-09-08T09:56:23.443Z,48.39
2018-09-08T09:57:23.622Z,47.33
2018-09-08T09:58:23.824Z,47.24
2018-09-08T09:59:23.980Z,46.78
2018-09-08T10:00:24.166Z,46.80
2018-09-08T10:01:24.341Z,46.73
2018-09-08T10:02:24.590Z,46.51
2018-09-08T10:03:24.715Z,46.63
2018-09-08T10:04:24.913Z,45.37
2018-09-08T10:05:25.078Z,45.35
2018-09-08T10:06:25.306Z,45.28
2018-09-08T10:07:25.481Z,44.89
2018-09-08T10:08:25.638Z,44.60
2018-09-08T10:09:25.803Z,43.80
2018-09-08T10:10:26.021Z,46.08
2018-09-08T10:11:26.186Z,46.64
2018-09-08T10:12:26.380Z,47.89
2018-09-08T10:13:26.547Z,48.37
2018-09-08T10:14:26.713Z,47.72
2018-09-08T10:15:26.942Z,47.33
2018-09-08T10:16:27.151Z,46.30
2018-09-08T10:17:27.298Z,46.49
2018-09-08T10:18:27.500Z,46.85
2018-09-08T10:19:27.685Z,47.81
2018-09-08T10:20:27.866Z,47.43
2018-09-08T10:21:28.053Z,46.88
2018-09-08T10:22:28.234Z,47.07
2018-09-08T10:23:28.458Z,46.70
2018-09-08T10:24:28.561Z,45.35
2018-09-08T10:25:28.767Z,45.93
2018-09-08T10:26:29.453Z,45.16
2018-09-08T10:27:29.098Z,45.45
2018-09-08T10:28:29.700Z,45.33
2018-09-08T10:29:29.794Z,44.40
2018-09-08T10:30:29.756Z,43.80
2018-09-08T10:31:29.817Z,43.82
2018-09-08T10:32:30.013Z,44.26
2018-09-08T10:33:30.157Z,46.54
2018-09-08T10:34:30.359Z,46.56
2018-09-08T10:35:30.499Z,46.47
2018-09-08T10:36:30.701Z,46.56
2018-09-08T10:37:30.877Z,47.99
2018-09-08T10:38:31.080Z,47.67
2018-09-08T10:39:31.251Z,47.31
2018-09-08T10:40:31.445Z,46.08
2018-09-08T10:41:31.646Z,45.25
2018-09-08T10:42:31.801Z,44.57
2018-09-08T10:43:31.979Z,43.05
2018-09-08T10:44:32.158Z,42.96
2018-09-08T10:45:32.390Z,42.57
2018-09-08T10:46:32.569Z,43.13
2018-09-08T10:47:32.726Z,43.07
2018-09-08T10:48:32.910Z,41.79
2018-09-08T10:49:33.075Z,42.08
2018-09-08T10:50:33.261Z,42.57
2018-09-08T10:51:33.493Z,42.16
2018-09-08T10:52:33.672Z,42.02
2018-09-08T10:53:33.847Z,43.74
2018-09-08T10:54:33.998Z,44.42
2018-09-08T10:55:34.172Z,44.60
2018-09-08T10:56:34.386Z,44.92
2018-09-08T10:57:34.524Z,45.31
2018-09-08T10:58:34.706Z,43.95
2018-09-08T10:59:34.888Z,44.29
2018-09-08T11:00:35.102Z,45.87
2018-09-08T11:01:35.582Z,47.65
2018-09-08T11:02:35.556Z,49.34
2018-09-08T11:03:35.628Z,48.76
2018-09-08T11:04:35.777Z,48.79
2018-09-08T11:05:35.979Z,48.03
2018-09-08T11:06:36.219Z,47.00
2018-09-08T11:07:36.319Z,46.42
2018-09-08T11:08:36.493Z,46.34
2018-09-08T11:09:36.736Z,45.48
2018-09-08T11:10:36.935Z,45.38
2018-09-08T11:11:37.096Z,45.28
2018-09-08T11:12:37.220Z,46.06
2018-09-08T11:13:37.500Z,44.80
2018-09-08T11:14:37.570Z,45.28
2018-09-08T11:15:37.747Z,44.80
2018-09-08T11:16:37.943Z,45.01
2018-09-08T11:17:38.131Z,44.90
2018-09-08T11:18:38.292Z,45.94
2018-09-08T11:19:38.490Z,45.55
2018-09-08T11:20:38.933Z,46.59
2018-09-08T11:21:38.887Z,47.17
2018-09-08T11:22:39.078Z,46.81
2018-09-08T11:23:39.256Z,46.81
2018-09-08T11:24:39.434Z,46.33
2018-09-08T11:25:39.603Z,46.33
2018-09-08T11:26:39.794Z,46.54
2018-09-08T11:27:39.955Z,46.06
2018-09-08T11:28:40.140Z,45.76
2018-09-08T11:29:40.333Z,45.96
2018-09-08T11:30:40.532Z,46.64
2018-09-08T11:31:40.698Z,45.57
2018-09-08T11:32:40.878Z,44.70
2018-09-08T11:33:41.084Z,44.78
2018-09-08T11:34:41.243Z,45.24
2018-09-08T11:35:41.459Z,46.30
2018-09-08T11:36:41.628Z,46.97
2018-09-08T11:37:41.790Z,46.59
2018-09-08T11:38:41.977Z,46.59
2018-09-08T11:39:42.151Z,46.69
2018-09-08T11:40:42.330Z,47.03
2018-09-08T11:41:42.581Z,48.01
2018-09-08T11:42:42.667Z,47.72
2018-09-08T11:43:42.868Z,47.94
2018-09-08T11:44:43.084Z,47.85
2018-09-08T11:45:43.239Z,46.49
2018-09-08T11:46:43.409Z,46.78
2018-09-08T11:47:43.581Z,46.30
2018-09-08T11:48:43.759Z,46.30
2018-09-08T11:49:44.058Z,46.69
2018-09-08T11:50:44.080Z,46.23
2018-09-08T11:51:44.262Z,45.36
2018-09-08T11:52:44.470Z,45.17
2018-09-08T11:53:44.626Z,44.59
2018-09-08T11:54:44.791Z,44.20
2018-09-08T11:55:45.110Z,43.81
2018-09-08T11:56:45.152Z,43.72
2018-09-08T11:57:45.321Z,43.43
2018-09-08T11:58:45.500Z,44.37
2018-09-08T11:59:45.693Z,44.46
2018-09-08T12:00:45.866Z,44.10
2018-09-08T12:01:46.052Z,44.97
2018-09-08T12:02:46.240Z,44.29
2018-09-08T12:03:46.430Z,44.20
2018-09-08T12:04:46.842Z,43.62
2018-09-08T12:05:46.782Z,42.85
2018-09-08T12:06:46.958Z,42.94
2018-09-08T12:07:47.121Z,42.75
2018-09-08T12:08:47.296Z,43.24
2018-09-08T12:09:47.553Z,43.52
2018-09-08T12:10:47.767Z,43.41
2018-09-08T12:11:47.895Z,43.04
2018-09-08T12:12:48.080Z,43.52
2018-09-08T12:13:48.303Z,43.24
2018-09-08T12:14:48.432Z,43.14
2018-09-08T12:15:48.616Z,43.79
2018-09-08T12:16:48.785Z,44.56
2018-09-08T12:17:48.963Z,44.37
2018-09-08T12:18:49.400Z,44.18
2018-09-08T12:19:49.341Z,43.70
2018-09-08T12:20:49.530Z,43.81
2018-09-08T12:21:49.695Z,43.81
2018-09-08T12:22:49.893Z,43.62
2018-09-08T12:23:50.057Z,43.43
2018-09-08T12:24:50.305Z,43.43
2018-09-08T12:26:50.705Z,42.83
2018-09-08T12:27:50.893Z,43.81
2018-09-08T12:28:51.067Z,43.89
2018-09-08T12:29:51.233Z,43.70
2018-09-08T12:30:51.546Z,44.35
2018-09-08T12:31:51.579Z,44.52
2018-09-08T12:32:51.794Z,44.93
2018-09-08T12:33:51.975Z,44.85
2018-09-08T12:34:52.115Z,44.76
2018-09-08T12:35:52.296Z,44.18
2018-09-08T12:36:52.476Z,43.79
2018-09-08T12:37:52.643Z,44.76
2018-09-08T12:38:52.908Z,44.15
2018-09-08T12:39:53.019Z,44.15
2018-09-08T12:40:53.197Z,44.83
2018-09-08T12:41:53.352Z,44.83
2018-09-08T12:42:53.538Z,44.37
2018-09-08T12:43:53.714Z,44.37
2018-09-08T12:44:53.887Z,44.27
2018-09-08T12:45:54.198Z,43.60
2018-09-08T12:46:54.238Z,44.37
2018-09-08T12:47:54.466Z,43.70
2018-09-08T12:48:54.617Z,43.70
2018-09-08T12:49:54.787Z,43.31
2018-09-08T12:50:54.955Z,43.79
2018-09-08T12:51:55.126Z,43.79
2018-09-08T12:52:55.270Z,42.73
2018-09-08T12:53:55.473Z,43.12
2018-09-08T12:54:55.665Z,43.50
2018-09-08T12:55:55.842Z,43.62
2018-09-08T12:56:56.021Z,43.04
2018-09-08T12:57:56.247Z,43.12
2018-09-08T12:58:56.425Z,43.12